sensor_id;sensor_type;location;lat;lon;timestamp;P1;durP1;ratioP1;P2;durP2;ratioP2
27161;SDS011;54464;50.558;9.704;2023-07-29T00:02:08;8.53;;;7.83;;
27161;SDS011;54464;50.558;9.704;2023-07-29T00:04:33;7.87;;;7.27;;
27161;SDS011;54464;50.558;9.704;2023-07-29T00:06:59;8.03;;;7.43;;
27161;SDS011;54464;50.558;9.704;2023-07-29T00:09:25;7.53;;;6.83;;
27161;SDS011;54464;50.558;9.704;2023-07-29T00:11:50;7.60;;;6.90;;
27161;SDS011;54464;50.558;9.704;2023-07-29T00:14:16;8.37;;;7.60;;
27161;SDS011;54464;50.558;9.704;2023-07-29T00:16:41;7.53;;;6.93;;
27161;SDS011;54464;50.558;9.704;2023-07-29T00:19:07;7.10;;;6.50;;
27161;SDS011;54464;50.558;9.704;2023-07-29T00:21:33;7.03;;;6.53;;
27161;SDS011;54464;50.558;9.704;2023-07-29T00:23:59;6.77;;;6.20;;
27161;SDS011;54464;50.558;9.704;2023-07-29T00:26:26;7.00;;;6.40;;
27161;SDS011;54464;50.558;9.704;2023-07-29T00:28:53;6.97;;;6.37;;
27161;SDS011;54464;50.558;9.704;2023-07-29T00:31:23;7.37;;;6.70;;
27161;SDS011;54464;50.558;9.704;2023-07-29T00:33:48;6.67;;;6.17;;
27161;SDS011;54464;50.558;9.704;2023-07-29T00:36:14;6.73;;;6.13;;
27161;SDS011;54464;50.558;9.704;2023-07-29T00:38:39;6.73;;;6.10;;
27161;SDS011;54464;50.558;9.704;2023-07-29T00:41:05;6.97;;;6.40;;
27161;SDS011;54464;50.558;9.704;2023-07-29T00:43:31;6.77;;;6.17;;
27161;SDS011;54464;50.558;9.704;2023-07-29T00:45:57;6.90;;;6.30;;
27161;SDS011;54464;50.558;9.704;2023-07-29T01:01:52;6.40;;;5.90;;
27161;SDS011;54464;50.558;9.704;2023-07-29T01:04:23;6.30;;;5.73;;
27161;SDS011;54464;50.558;9.704;2023-07-29T01:06:51;6.63;;;6.03;;
27161;SDS011;54464;50.558;9.704;2023-07-29T01:18:54;6.00;;;5.50;;
27161;SDS011;54464;50.558;9.704;2023-07-29T01:21:21;7.90;;;6.10;;
27161;SDS011;54464;50.558;9.704;2023-07-29T01:23:51;5.97;;;5.33;;
27161;SDS011;54464;50.558;9.704;2023-07-29T01:26:18;6.07;;;5.57;;
27161;SDS011;54464;50.558;9.704;2023-07-29T01:28:43;5.37;;;4.87;;
27161;SDS011;54464;50.558;9.704;2023-07-29T01:31:13;5.93;;;5.33;;
27161;SDS011;54464;50.558;9.704;2023-07-29T01:33:58;5.83;;;5.33;;
27161;SDS011;54464;50.558;9.704;2023-07-29T01:36:30;6.20;;;5.00;;
27161;SDS011;54464;50.558;9.704;2023-07-29T01:38:59;5.13;;;4.77;;
27161;SDS011;54464;50.558;9.704;2023-07-29T01:41:26;5.50;;;4.90;;
27161;SDS011;54464;50.558;9.704;2023-07-29T01:43:52;4.90;;;4.50;;
27161;SDS011;54464;50.558;9.704;2023-07-29T01:46:18;5.37;;;4.60;;
27161;SDS011;54464;50.558;9.704;2023-07-29T01:48:44;5.10;;;4.70;;
27161;SDS011;54464;50.558;9.704;2023-07-29T01:51:11;5.30;;;4.90;;
27161;SDS011;54464;50.558;9.704;2023-07-29T01:53:38;5.27;;;4.87;;
27161;SDS011;54464;50.558;9.704;2023-07-29T01:56:03;5.77;;;5.27;;
27161;SDS011;54464;50.558;9.704;2023-07-29T01:58:29;5.63;;;5.23;;
27161;SDS011;54464;50.558;9.704;2023-07-29T02:00:54;5.83;;;5.00;;
27161;SDS011;54464;50.558;9.704;2023-07-29T02:03:20;5.33;;;4.60;;
27161;SDS011;54464;50.558;9.704;2023-07-29T02:05:46;5.10;;;4.70;;
27161;SDS011;54464;50.558;9.704;2023-07-29T02:08:11;4.80;;;4.50;;
27161;SDS011;54464;50.558;9.704;2023-07-29T02:10:37;4.77;;;4.37;;
27161;SDS011;54464;50.558;9.704;2023-07-29T02:13:03;4.40;;;4.10;;
27161;SDS011;54464;50.558;9.704;2023-07-29T02:15:28;5.00;;;4.47;;
27161;SDS011;54464;50.558;9.704;2023-07-29T02:17:54;4.23;;;3.93;;
27161;SDS011;54464;50.558;9.704;2023-07-29T02:20:20;4.67;;;4.27;;
27161;SDS011;54464;50.558;9.704;2023-07-29T02:22:45;4.50;;;4.10;;
27161;SDS011;54464;50.558;9.704;2023-07-29T02:25:12;4.37;;;4.03;;
27161;SDS011;54464;50.558;9.704;2023-07-29T02:27:37;4.70;;;4.30;;
27161;SDS011;54464;50.558;9.704;2023-07-29T02:30:03;4.20;;;3.90;;
27161;SDS011;54464;50.558;9.704;2023-07-29T02:32:29;4.27;;;3.97;;
27161;SDS011;54464;50.558;9.704;2023-07-29T02:34:54;4.20;;;3.90;;
27161;SDS011;54464;50.558;9.704;2023-07-29T02:37:20;5.13;;;4.53;;
27161;SDS011;54464;50.558;9.704;2023-07-29T02:39:46;4.03;;;3.63;;
27161;SDS011;54464;50.558;9.704;2023-07-29T02:42:11;4.60;;;4.20;;
27161;SDS011;54464;50.558;9.704;2023-07-29T02:44:37;4.60;;;4.20;;
27161;SDS011;54464;50.558;9.704;2023-07-29T02:47:03;4.10;;;3.80;;
27161;SDS011;54464;50.558;9.704;2023-07-29T02:49:29;3.80;;;3.50;;
27161;SDS011;54464;50.558;9.704;2023-07-29T02:51:54;4.07;;;3.77;;
27161;SDS011;54464;50.558;9.704;2023-07-29T02:54:20;3.80;;;3.60;;
27161;SDS011;54464;50.558;9.704;2023-07-29T02:56:45;3.53;;;3.23;;
27161;SDS011;54464;50.558;9.704;2023-07-29T02:59:11;3.97;;;3.70;;
27161;SDS011;54464;50.558;9.704;2023-07-29T03:01:37;4.30;;;3.90;;
27161;SDS011;54464;50.558;9.704;2023-07-29T03:04:02;3.77;;;3.47;;
27161;SDS011;54464;50.558;9.704;2023-07-29T03:06:28;3.73;;;3.43;;
27161;SDS011;54464;50.558;9.704;2023-07-29T03:08:54;4.00;;;3.57;;
27161;SDS011;54464;50.558;9.704;2023-07-29T03:11:19;3.20;;;2.83;;
27161;SDS011;54464;50.558;9.704;2023-07-29T03:13:45;4.37;;;3.60;;
27161;SDS011;54464;50.558;9.704;2023-07-29T03:16:12;3.30;;;2.93;;
27161;SDS011;54464;50.558;9.704;2023-07-29T03:18:42;2.93;;;2.73;;
27161;SDS011;54464;50.558;9.704;2023-07-29T03:21:08;3.07;;;2.87;;
27161;SDS011;54464;50.558;9.704;2023-07-29T03:23:34;2.97;;;2.77;;
27161;SDS011;54464;50.558;9.704;2023-07-29T03:26:00;3.00;;;2.80;;
27161;SDS011;54464;50.558;9.704;2023-07-29T03:28:29;2.90;;;2.70;;
27161;SDS011;54464;50.558;9.704;2023-07-29T03:30:56;3.03;;;2.73;;
27161;SDS011;54464;50.558;9.704;2023-07-29T03:33:22;3.00;;;2.70;;
27161;SDS011;54464;50.558;9.704;2023-07-29T03:35:49;2.60;;;2.37;;
27161;SDS011;54464;50.558;9.704;2023-07-29T03:38:15;2.60;;;2.40;;
27161;SDS011;54464;50.558;9.704;2023-07-29T03:40:41;2.70;;;2.50;;
27161;SDS011;54464;50.558;9.704;2023-07-29T03:43:07;3.17;;;2.87;;
27161;SDS011;54464;50.558;9.704;2023-07-29T03:45:33;2.83;;;2.63;;
27161;SDS011;54464;50.558;9.704;2023-07-29T03:47:59;3.70;;;2.67;;
27161;SDS011;54464;50.558;9.704;2023-07-29T03:50:25;3.33;;;3.03;;
27161;SDS011;54464;50.558;9.704;2023-07-29T03:52:51;3.20;;;3.00;;
27161;SDS011;54464;50.558;9.704;2023-07-29T03:55:17;3.07;;;2.87;;
27161;SDS011;54464;50.558;9.704;2023-07-29T03:57:42;3.17;;;2.97;;
27161;SDS011;54464;50.558;9.704;2023-07-29T04:00:08;5.30;;;3.20;;
27161;SDS011;54464;50.558;9.704;2023-07-29T04:02:34;3.60;;;3.30;;
27161;SDS011;54464;50.558;9.704;2023-07-29T04:05:02;3.20;;;3.00;;
27161;SDS011;54464;50.558;9.704;2023-07-29T04:07:29;3.13;;;2.93;;
27161;SDS011;54464;50.558;9.704;2023-07-29T04:09:55;3.20;;;3.00;;
27161;SDS011;54464;50.558;9.704;2023-07-29T04:12:20;3.50;;;3.20;;
27161;SDS011;54464;50.558;9.704;2023-07-29T04:14:46;4.33;;;3.27;;
27161;SDS011;54464;50.558;9.704;2023-07-29T04:17:12;3.60;;;3.30;;
27161;SDS011;54464;50.558;9.704;2023-07-29T04:19:38;3.20;;;3.00;;
27161;SDS011;54464;50.558;9.704;2023-07-29T04:22:03;4.63;;;2.80;;
27161;SDS011;54464;50.558;9.704;2023-07-29T04:24:29;4.23;;;3.60;;
27161;SDS011;54464;50.558;9.704;2023-07-29T04:26:54;3.37;;;3.07;;
27161;SDS011;54464;50.558;9.704;2023-07-29T04:29:20;4.10;;;3.40;;
27161;SDS011;54464;50.558;9.704;2023-07-29T04:31:47;3.13;;;2.93;;
27161;SDS011;54464;50.558;9.704;2023-07-29T04:34:13;3.17;;;2.87;;
27161;SDS011;54464;50.558;9.704;2023-07-29T04:36:39;3.20;;;3.00;;
27161;SDS011;54464;50.558;9.704;2023-07-29T04:39:04;3.37;;;3.07;;
27161;SDS011;54464;50.558;9.704;2023-07-29T04:41:30;3.37;;;3.17;;
27161;SDS011;54464;50.558;9.704;2023-07-29T04:43:56;3.30;;;3.00;;
27161;SDS011;54464;50.558;9.704;2023-07-29T04:46:21;3.03;;;2.83;;
27161;SDS011;54464;50.558;9.704;2023-07-29T04:48:50;3.50;;;3.20;;
27161;SDS011;54464;50.558;9.704;2023-07-29T04:51:15;3.27;;;3.07;;
27161;SDS011;54464;50.558;9.704;2023-07-29T04:53:41;3.50;;;3.30;;
27161;SDS011;54464;50.558;9.704;2023-07-29T04:56:06;3.50;;;3.20;;
27161;SDS011;54464;50.558;9.704;2023-07-29T04:58:32;3.53;;;3.30;;
27161;SDS011;54464;50.558;9.704;2023-07-29T05:01:00;3.50;;;3.30;;
27161;SDS011;54464;50.558;9.704;2023-07-29T05:03:26;3.80;;;3.30;;
27161;SDS011;54464;50.558;9.704;2023-07-29T05:05:51;3.43;;;3.13;;
27161;SDS011;54464;50.558;9.704;2023-07-29T05:08:19;3.53;;;3.20;;
27161;SDS011;54464;50.558;9.704;2023-07-29T05:10:48;3.50;;;3.20;;
27161;SDS011;54464;50.558;9.704;2023-07-29T05:13:15;3.73;;;3.13;;
27161;SDS011;54464;50.558;9.704;2023-07-29T05:15:40;3.20;;;2.90;;
27161;SDS011;54464;50.558;9.704;2023-07-29T05:18:06;3.00;;;2.80;;
27161;SDS011;54464;50.558;9.704;2023-07-29T05:20:31;3.07;;;2.67;;
27161;SDS011;54464;50.558;9.704;2023-07-29T05:22:57;4.10;;;3.00;;
27161;SDS011;54464;50.558;9.704;2023-07-29T05:25:22;2.80;;;2.60;;
27161;SDS011;54464;50.558;9.704;2023-07-29T05:27:51;2.57;;;2.37;;
27161;SDS011;54464;50.558;9.704;2023-07-29T05:30:16;2.60;;;2.40;;
27161;SDS011;54464;50.558;9.704;2023-07-29T05:32:42;3.40;;;2.70;;
27161;SDS011;54464;50.558;9.704;2023-07-29T05:35:07;2.70;;;2.50;;
27161;SDS011;54464;50.558;9.704;2023-07-29T05:37:33;3.77;;;2.30;;
27161;SDS011;54464;50.558;9.704;2023-07-29T05:40:02;2.70;;;2.50;;
27161;SDS011;54464;50.558;9.704;2023-07-29T05:42:27;2.43;;;2.30;;
27161;SDS011;54464;50.558;9.704;2023-07-29T05:44:53;2.90;;;2.67;;
27161;SDS011;54464;50.558;9.704;2023-07-29T05:47:18;2.30;;;2.10;;
27161;SDS011;54464;50.558;9.704;2023-07-29T05:49:44;2.80;;;2.10;;
27161;SDS011;54464;50.558;9.704;2023-07-29T05:52:09;2.50;;;2.30;;
27161;SDS011;54464;50.558;9.704;2023-07-29T05:54:38;3.23;;;2.43;;
27161;SDS011;54464;50.558;9.704;2023-07-29T05:57:03;3.00;;;2.40;;
27161;SDS011;54464;50.558;9.704;2023-07-29T05:59:29;2.33;;;2.13;;
27161;SDS011;54464;50.558;9.704;2023-07-29T06:01:56;2.50;;;2.30;;
27161;SDS011;54464;50.558;9.704;2023-07-29T06:04:21;2.47;;;2.27;;
27161;SDS011;54464;50.558;9.704;2023-07-29T06:06:47;2.40;;;2.20;;
27161;SDS011;54464;50.558;9.704;2023-07-29T06:09:16;3.00;;;2.70;;
27161;SDS011;54464;50.558;9.704;2023-07-29T06:11:45;3.60;;;2.57;;
27161;SDS011;54464;50.558;9.704;2023-07-29T06:14:10;2.93;;;2.60;;
27161;SDS011;54464;50.558;9.704;2023-07-29T06:16:36;2.73;;;2.53;;
27161;SDS011;54464;50.558;9.704;2023-07-29T06:19:02;3.63;;;3.33;;
27161;SDS011;54464;50.558;9.704;2023-07-29T06:21:27;3.70;;;3.40;;
27161;SDS011;54464;50.558;9.704;2023-07-29T06:23:53;3.57;;;3.00;;
27161;SDS011;54464;50.558;9.704;2023-07-29T06:26:18;5.43;;;3.60;;
27161;SDS011;54464;50.558;9.704;2023-07-29T06:28:44;3.73;;;3.43;;
27161;SDS011;54464;50.558;9.704;2023-07-29T06:31:09;3.60;;;3.30;;
27161;SDS011;54464;50.558;9.704;2023-07-29T06:33:35;3.10;;;2.80;;
27161;SDS011;54464;50.558;9.704;2023-07-29T06:36:01;3.40;;;3.07;;
27161;SDS011;54464;50.558;9.704;2023-07-29T06:38:26;4.67;;;3.30;;
27161;SDS011;54464;50.558;9.704;2023-07-29T06:40:52;3.30;;;3.10;;
27161;SDS011;54464;50.558;9.704;2023-07-29T06:43:18;3.60;;;3.30;;
27161;SDS011;54464;50.558;9.704;2023-07-29T06:45:44;3.30;;;3.00;;
27161;SDS011;54464;50.558;9.704;2023-07-29T06:48:09;3.90;;;3.60;;
27161;SDS011;54464;50.558;9.704;2023-07-29T06:50:38;4.03;;;3.73;;
27161;SDS011;54464;50.558;9.704;2023-07-29T06:53:06;4.13;;;3.73;;
27161;SDS011;54464;50.558;9.704;2023-07-29T06:55:32;4.27;;;3.87;;
27161;SDS011;54464;50.558;9.704;2023-07-29T06:57:57;3.90;;;3.47;;
27161;SDS011;54464;50.558;9.704;2023-07-29T07:00:23;5.67;;;3.93;;
27161;SDS011;54464;50.558;9.704;2023-07-29T07:02:49;4.10;;;3.80;;
27161;SDS011;54464;50.558;9.704;2023-07-29T07:05:14;3.43;;;2.70;;
27161;SDS011;54464;50.558;9.704;2023-07-29T07:07:40;2.93;;;2.73;;
27161;SDS011;54464;50.558;9.704;2023-07-29T07:10:06;3.20;;;3.00;;
27161;SDS011;54464;50.558;9.704;2023-07-29T07:12:39;3.73;;;3.17;;
27161;SDS011;54464;50.558;9.704;2023-07-29T07:15:04;3.87;;;3.60;;
27161;SDS011;54464;50.558;9.704;2023-07-29T07:17:30;3.67;;;3.37;;
27161;SDS011;54464;50.558;9.704;2023-07-29T07:19:56;3.50;;;3.20;;
27161;SDS011;54464;50.558;9.704;2023-07-29T07:22:25;3.50;;;3.20;;
27161;SDS011;54464;50.558;9.704;2023-07-29T07:24:52;4.00;;;3.70;;
27161;SDS011;54464;50.558;9.704;2023-07-29T07:27:17;3.83;;;3.53;;
27161;SDS011;54464;50.558;9.704;2023-07-29T07:29:43;4.90;;;3.37;;
27161;SDS011;54464;50.558;9.704;2023-07-29T07:32:08;3.70;;;3.40;;
27161;SDS011;54464;50.558;9.704;2023-07-29T07:34:34;3.10;;;2.90;;
27161;SDS011;54464;50.558;9.704;2023-07-29T07:37:00;3.83;;;3.40;;
27161;SDS011;54464;50.558;9.704;2023-07-29T07:39:25;3.90;;;3.53;;
27161;SDS011;54464;50.558;9.704;2023-07-29T07:41:51;4.13;;;3.83;;
27161;SDS011;54464;50.558;9.704;2023-07-29T07:44:17;4.33;;;4.03;;
27161;SDS011;54464;50.558;9.704;2023-07-29T07:46:44;4.93;;;4.13;;
27161;SDS011;54464;50.558;9.704;2023-07-29T07:49:10;3.80;;;3.50;;
27161;SDS011;54464;50.558;9.704;2023-07-29T07:51:35;4.20;;;3.90;;
27161;SDS011;54464;50.558;9.704;2023-07-29T07:54:01;3.97;;;3.60;;
27161;SDS011;54464;50.558;9.704;2023-07-29T07:56:27;3.60;;;3.30;;
27161;SDS011;54464;50.558;9.704;2023-07-29T07:58:52;4.33;;;3.50;;
27161;SDS011;54464;50.558;9.704;2023-07-29T08:01:18;3.90;;;3.57;;
27161;SDS011;54464;50.558;9.704;2023-07-29T08:03:44;4.17;;;3.77;;
27161;SDS011;54464;50.558;9.704;2023-07-29T08:06:10;5.10;;;4.70;;
27161;SDS011;54464;50.558;9.704;2023-07-29T08:08:35;5.00;;;4.60;;
27161;SDS011;54464;50.558;9.704;2023-07-29T08:11:01;5.50;;;4.83;;
27161;SDS011;54464;50.558;9.704;2023-07-29T08:13:26;5.77;;;5.27;;
27161;SDS011;54464;50.558;9.704;2023-07-29T08:15:52;6.10;;;5.60;;
27161;SDS011;54464;50.558;9.704;2023-07-29T08:18:18;7.97;;;5.53;;
27161;SDS011;54464;50.558;9.704;2023-07-29T08:20:57;6.73;;;6.13;;
27161;SDS011;54464;50.558;9.704;2023-07-29T08:23:26;6.73;;;6.13;;
27161;SDS011;54464;50.558;9.704;2023-07-29T08:25:52;7.33;;;6.70;;
27161;SDS011;54464;50.558;9.704;2023-07-29T08:28:18;7.47;;;6.77;;
27161;SDS011;54464;50.558;9.704;2023-07-29T08:30:44;7.77;;;7.07;;
27161;SDS011;54464;50.558;9.704;2023-07-29T08:33:10;9.03;;;8.23;;
27161;SDS011;54464;50.558;9.704;2023-07-29T08:35:35;8.83;;;7.83;;
27161;SDS011;54464;50.558;9.704;2023-07-29T08:38:01;8.33;;;7.53;;
27161;SDS011;54464;50.558;9.704;2023-07-29T08:40:29;8.63;;;7.87;;
27161;SDS011;54464;50.558;9.704;2023-07-29T08:42:56;7.57;;;6.97;;
27161;SDS011;54464;50.558;9.704;2023-07-29T08:45:25;8.87;;;8.07;;
27161;SDS011;54464;50.558;9.704;2023-07-29T08:47:52;8.40;;;7.60;;
27161;SDS011;54464;50.558;9.704;2023-07-29T08:50:22;8.53;;;7.63;;
27161;SDS011;54464;50.558;9.704;2023-07-29T08:52:49;7.40;;;6.80;;
27161;SDS011;54464;50.558;9.704;2023-07-29T08:55:17;6.47;;;5.90;;
27161;SDS011;54464;50.558;9.704;2023-07-29T08:57:43;7.90;;;7.10;;
27161;SDS011;54464;50.558;9.704;2023-07-29T09:00:10;7.13;;;6.53;;
27161;SDS011;54464;50.558;9.704;2023-07-29T09:02:37;7.40;;;6.80;;
27161;SDS011;54464;50.558;9.704;2023-07-29T09:05:03;6.97;;;6.27;;
27161;SDS011;54464;50.558;9.704;2023-07-29T09:07:30;5.47;;;4.97;;
27161;SDS011;54464;50.558;9.704;2023-07-29T09:09:55;5.60;;;5.00;;
27161;SDS011;54464;50.558;9.704;2023-07-29T09:12:21;5.03;;;4.40;;
27161;SDS011;54464;50.558;9.704;2023-07-29T09:14:47;4.47;;;3.97;;
27161;SDS011;54464;50.558;9.704;2023-07-29T09:17:17;3.40;;;3.10;;
27161;SDS011;54464;50.558;9.704;2023-07-29T09:19:47;4.03;;;3.37;;
27161;SDS011;54464;50.558;9.704;2023-07-29T09:22:19;3.67;;;3.37;;
27161;SDS011;54464;50.558;9.704;2023-07-29T09:24:46;3.60;;;3.40;;
27161;SDS011;54464;50.558;9.704;2023-07-29T09:27:27;4.47;;;3.20;;
27161;SDS011;54464;50.558;9.704;2023-07-29T09:29:56;3.30;;;3.10;;
27161;SDS011;54464;50.558;9.704;2023-07-29T09:32:23;3.23;;;3.03;;
27161;SDS011;54464;50.558;9.704;2023-07-29T09:34:50;3.77;;;3.40;;
27161;SDS011;54464;50.558;9.704;2023-07-29T09:37:16;3.70;;;3.40;;
27161;SDS011;54464;50.558;9.704;2023-07-29T09:39:45;2.80;;;2.60;;
27161;SDS011;54464;50.558;9.704;2023-07-29T09:42:16;2.67;;;2.47;;
27161;SDS011;54464;50.558;9.704;2023-07-29T09:44:48;2.73;;;2.53;;
27161;SDS011;54464;50.558;9.704;2023-07-29T09:47:24;2.50;;;2.30;;
27161;SDS011;54464;50.558;9.704;2023-07-29T09:49:51;3.20;;;2.37;;
27161;SDS011;54464;50.558;9.704;2023-07-29T09:52:18;2.50;;;2.30;;
27161;SDS011;54464;50.558;9.704;2023-07-29T09:54:44;2.70;;;2.33;;
27161;SDS011;54464;50.558;9.704;2023-07-29T09:57:11;2.40;;;2.30;;
27161;SDS011;54464;50.558;9.704;2023-07-29T09:59:41;3.03;;;2.40;;
27161;SDS011;54464;50.558;9.704;2023-07-29T10:02:13;2.30;;;2.10;;
27161;SDS011;54464;50.558;9.704;2023-07-29T10:04:44;2.97;;;2.27;;
27161;SDS011;54464;50.558;9.704;2023-07-29T10:07:11;2.57;;;2.30;;
27161;SDS011;54464;50.558;9.704;2023-07-29T10:09:37;2.70;;;2.50;;
27161;SDS011;54464;50.558;9.704;2023-07-29T10:12:04;2.27;;;2.10;;
27161;SDS011;54464;50.558;9.704;2023-07-29T10:14:31;2.00;;;1.90;;
27161;SDS011;54464;50.558;9.704;2023-07-29T10:16:57;2.20;;;2.00;;
27161;SDS011;54464;50.558;9.704;2023-07-29T10:19:24;2.23;;;1.93;;
27161;SDS011;54464;50.558;9.704;2023-07-29T10:21:53;3.27;;;2.60;;
27161;SDS011;54464;50.558;9.704;2023-07-29T10:24:24;2.00;;;1.90;;
27161;SDS011;54464;50.558;9.704;2023-07-29T10:26:54;3.43;;;2.73;;
27161;SDS011;54464;50.558;9.704;2023-07-29T10:29:22;2.80;;;2.60;;
27161;SDS011;54464;50.558;9.704;2023-07-29T10:31:49;2.77;;;2.37;;
27161;SDS011;54464;50.558;9.704;2023-07-29T10:34:18;2.47;;;2.30;;
27161;SDS011;54464;50.558;9.704;2023-07-29T10:36:45;2.80;;;2.17;;
27161;SDS011;54464;50.558;9.704;2023-07-29T10:39:13;2.43;;;2.23;;
27161;SDS011;54464;50.558;9.704;2023-07-29T10:49:58;2.50;;;2.30;;
27161;SDS011;54464;50.558;9.704;2023-07-29T10:52:32;3.57;;;2.50;;
27161;SDS011;54464;50.558;9.704;2023-07-29T10:55:24;2.40;;;2.20;;
27161;SDS011;54464;50.558;9.704;2023-07-29T10:58:14;3.23;;;2.37;;
27161;SDS011;54464;50.558;9.704;2023-07-29T11:00:43;2.50;;;2.30;;
27161;SDS011;54464;50.558;9.704;2023-07-29T11:03:09;2.30;;;2.10;;
27161;SDS011;54464;50.558;9.704;2023-07-29T11:05:52;2.03;;;1.80;;
27161;SDS011;54464;50.558;9.704;2023-07-29T11:08:22;2.07;;;1.97;;
27161;SDS011;54464;50.558;9.704;2023-07-29T11:11:02;2.47;;;2.27;;
27161;SDS011;54464;50.558;9.704;2023-07-29T11:13:33;2.47;;;2.20;;
27161;SDS011;54464;50.558;9.704;2023-07-29T11:16:00;2.47;;;2.27;;
27161;SDS011;54464;50.558;9.704;2023-07-29T11:18:33;2.30;;;2.10;;
27161;SDS011;54464;50.558;9.704;2023-07-29T11:21:00;3.37;;;2.70;;
27161;SDS011;54464;50.558;9.704;2023-07-29T11:23:35;2.57;;;2.37;;
27161;SDS011;54464;50.558;9.704;2023-07-29T11:26:01;2.40;;;2.20;;
27161;SDS011;54464;50.558;9.704;2023-07-29T11:28:28;2.33;;;1.93;;
27161;SDS011;54464;50.558;9.704;2023-07-29T11:30:57;2.37;;;2.17;;
27161;SDS011;54464;50.558;9.704;2023-07-29T11:33:26;2.23;;;1.83;;
27161;SDS011;54464;50.558;9.704;2023-07-29T11:35:53;1.77;;;1.67;;
27161;SDS011;54464;50.558;9.704;2023-07-29T11:38:20;2.20;;;2.00;;
27161;SDS011;54464;50.558;9.704;2023-07-29T11:40:56;2.50;;;1.93;;
27161;SDS011;54464;50.558;9.704;2023-07-29T11:43:24;3.07;;;1.87;;
27161;SDS011;54464;50.558;9.704;2023-07-29T11:45:50;1.93;;;1.83;;
27161;SDS011;54464;50.558;9.704;2023-07-29T11:48:16;1.80;;;1.70;;
27161;SDS011;54464;50.558;9.704;2023-07-29T11:50:42;1.50;;;1.40;;
27161;SDS011;54464;50.558;9.704;2023-07-29T11:53:08;1.80;;;1.60;;
27161;SDS011;54464;50.558;9.704;2023-07-29T11:55:34;2.97;;;1.43;;
27161;SDS011;54464;50.558;9.704;2023-07-29T11:58:00;2.80;;;1.60;;
27161;SDS011;54464;50.558;9.704;2023-07-29T12:00:26;3.90;;;1.57;;
27161;SDS011;54464;50.558;9.704;2023-07-29T12:02:52;1.77;;;1.67;;
27161;SDS011;54464;50.558;9.704;2023-07-29T12:05:18;1.57;;;1.47;;
27161;SDS011;54464;50.558;9.704;2023-07-29T12:07:46;3.50;;;1.80;;
27161;SDS011;54464;50.558;9.704;2023-07-29T12:10:12;2.13;;;1.93;;
27161;SDS011;54464;50.558;9.704;2023-07-29T12:12:48;2.13;;;1.60;;
27161;SDS011;54464;50.558;9.704;2023-07-29T12:15:27;1.40;;;1.30;;
27161;SDS011;54464;50.558;9.704;2023-07-29T12:17:58;2.10;;;1.60;;
27161;SDS011;54464;50.558;9.704;2023-07-29T12:20:24;1.90;;;1.77;;
27161;SDS011;54464;50.558;9.704;2023-07-29T12:22:57;2.07;;;1.90;;
27161;SDS011;54464;50.558;9.704;2023-07-29T12:25:26;3.90;;;2.00;;
27161;SDS011;54464;50.558;9.704;2023-07-29T12:27:52;1.97;;;1.77;;
27161;SDS011;54464;50.558;9.704;2023-07-29T12:30:21;1.77;;;1.67;;
27161;SDS011;54464;50.558;9.704;2023-07-29T12:32:47;1.80;;;1.60;;
27161;SDS011;54464;50.558;9.704;2023-07-29T12:35:13;1.87;;;0.93;;
27161;SDS011;54464;50.558;9.704;2023-07-29T12:37:39;1.47;;;0.40;;
27161;SDS011;54464;50.558;9.704;2023-07-29T12:40:08;11.23;;;1.20;;
27161;SDS011;54464;50.558;9.704;2023-07-29T12:42:54;1.90;;;0.97;;
27161;SDS011;54464;50.558;9.704;2023-07-29T12:45:21;1.43;;;1.13;;
27161;SDS011;54464;50.558;9.704;2023-07-29T12:47:51;2.77;;;1.23;;
27161;SDS011;54464;50.558;9.704;2023-07-29T12:50:16;12.63;;;1.93;;
27161;SDS011;54464;50.558;9.704;2023-07-29T12:52:42;14.97;;;2.03;;
27161;SDS011;54464;50.558;9.704;2023-07-29T12:55:08;4.40;;;1.77;;
27161;SDS011;54464;50.558;9.704;2023-07-29T12:57:37;2.73;;;1.70;;
27161;SDS011;54464;50.558;9.704;2023-07-29T13:00:04;3.53;;;1.77;;
27161;SDS011;54464;50.558;9.704;2023-07-29T13:02:31;2.53;;;1.90;;
27161;SDS011;54464;50.558;9.704;2023-07-29T13:04:56;3.17;;;2.23;;
27161;SDS011;54464;50.558;9.704;2023-07-29T13:07:22;4.17;;;2.73;;
27161;SDS011;54464;50.558;9.704;2023-07-29T13:09:48;5.00;;;1.97;;
27161;SDS011;54464;50.558;9.704;2023-07-29T13:12:13;3.67;;;2.50;;
27161;SDS011;54464;50.558;9.704;2023-07-29T13:14:39;4.83;;;2.83;;
27161;SDS011;54464;50.558;9.704;2023-07-29T13:17:04;3.73;;;2.67;;
27161;SDS011;54464;50.558;9.704;2023-07-29T13:19:30;4.40;;;3.27;;
27161;SDS011;54464;50.558;9.704;2023-07-29T13:21:56;5.10;;;3.33;;
27161;SDS011;54464;50.558;9.704;2023-07-29T13:24:21;5.17;;;3.80;;
27161;SDS011;54464;50.558;9.704;2023-07-29T13:26:47;5.13;;;4.30;;
27161;SDS011;54464;50.558;9.704;2023-07-29T13:29:12;7.60;;;4.67;;
27161;SDS011;54464;50.558;9.704;2023-07-29T13:31:38;4.57;;;4.07;;
27161;SDS011;54464;50.558;9.704;2023-07-29T13:34:03;4.77;;;4.10;;
27161;SDS011;54464;50.558;9.704;2023-07-29T13:36:29;6.20;;;3.97;;
27161;SDS011;54464;50.558;9.704;2023-07-29T13:38:54;6.17;;;4.10;;
27161;SDS011;54464;50.558;9.704;2023-07-29T13:41:20;5.63;;;3.50;;
27161;SDS011;54464;50.558;9.704;2023-07-29T13:43:46;4.30;;;3.60;;
27161;SDS011;54464;50.558;9.704;2023-07-29T13:46:11;4.03;;;3.20;;
27161;SDS011;54464;50.558;9.704;2023-07-29T13:48:37;3.43;;;2.97;;
27161;SDS011;54464;50.558;9.704;2023-07-29T13:51:02;3.63;;;3.13;;
27161;SDS011;54464;50.558;9.704;2023-07-29T13:53:28;4.93;;;3.73;;
27161;SDS011;54464;50.558;9.704;2023-07-29T13:55:53;4.23;;;3.43;;
27161;SDS011;54464;50.558;9.704;2023-07-29T13:58:19;3.47;;;2.80;;
27161;SDS011;54464;50.558;9.704;2023-07-29T14:00:44;3.20;;;2.33;;
27161;SDS011;54464;50.558;9.704;2023-07-29T14:03:10;2.90;;;2.70;;
27161;SDS011;54464;50.558;9.704;2023-07-29T14:05:35;3.63;;;2.80;;
27161;SDS011;54464;50.558;9.704;2023-07-29T14:08:01;4.63;;;3.87;;
27161;SDS011;54464;50.558;9.704;2023-07-29T14:10:27;5.57;;;3.47;;
27161;SDS011;54464;50.558;9.704;2023-07-29T14:12:52;5.33;;;3.10;;
27161;SDS011;54464;50.558;9.704;2023-07-29T14:15:18;2.83;;;2.53;;
27161;SDS011;54464;50.558;9.704;2023-07-29T14:17:43;3.00;;;2.70;;
27161;SDS011;54464;50.558;9.704;2023-07-29T14:20:09;2.77;;;2.57;;
27161;SDS011;54464;50.558;9.704;2023-07-29T14:22:35;2.53;;;2.10;;
27161;SDS011;54464;50.558;9.704;2023-07-29T14:25:01;2.20;;;2.00;;
27161;SDS011;54464;50.558;9.704;2023-07-29T14:27:27;3.60;;;1.90;;
27161;SDS011;54464;50.558;9.704;2023-07-29T14:29:52;2.37;;;2.17;;
27161;SDS011;54464;50.558;9.704;2023-07-29T14:32:18;2.33;;;1.70;;
27161;SDS011;54464;50.558;9.704;2023-07-29T14:34:43;3.33;;;1.43;;
27161;SDS011;54464;50.558;9.704;2023-07-29T14:37:09;1.00;;;0.90;;
27161;SDS011;54464;50.558;9.704;2023-07-29T14:39:34;1.20;;;1.10;;
27161;SDS011;54464;50.558;9.704;2023-07-29T14:42:00;2.13;;;1.30;;
27161;SDS011;54464;50.558;9.704;2023-07-29T14:44:25;1.73;;;1.10;;
27161;SDS011;54464;50.558;9.704;2023-07-29T14:46:51;1.83;;;1.50;;
27161;SDS011;54464;50.558;9.704;2023-07-29T14:49:17;2.13;;;1.13;;
27161;SDS011;54464;50.558;9.704;2023-07-29T14:51:42;1.80;;;1.33;;
27161;SDS011;54464;50.558;9.704;2023-07-29T14:54:08;1.53;;;1.40;;
27161;SDS011;54464;50.558;9.704;2023-07-29T14:56:33;2.83;;;1.47;;
27161;SDS011;54464;50.558;9.704;2023-07-29T14:58:59;2.53;;;1.10;;
27161;SDS011;54464;50.558;9.704;2023-07-29T15:01:24;2.57;;;1.20;;
27161;SDS011;54464;50.558;9.704;2023-07-29T15:03:50;2.77;;;1.50;;
27161;SDS011;54464;50.558;9.704;2023-07-29T15:06:15;1.70;;;1.40;;
27161;SDS011;54464;50.558;9.704;2023-07-29T15:08:41;4.23;;;3.87;;
27161;SDS011;54464;50.558;9.704;2023-07-29T15:11:07;8.43;;;7.40;;
27161;SDS011;54464;50.558;9.704;2023-07-29T15:13:32;4.03;;;3.63;;
27161;SDS011;54464;50.558;9.704;2023-07-29T15:15:58;2.00;;;1.77;;
27161;SDS011;54464;50.558;9.704;2023-07-29T15:18:23;1.67;;;1.53;;